createdAt,value
2017-09-18T00:00:55.656Z,1008.46
2017-09-18T00:01:55.621Z,1008.41
2017-09-18T00:02:55.587Z,1008.39
2017-09-18T00:03:55.581Z,1008.41
2017-09-18T00:04:55.539Z,1008.39
2017-09-18T00:05:55.480Z,1008.39
2017-09-18T00:06:55.465Z,1008.37
2017-09-18T00:07:55.415Z,1008.36
2017-09-18T00:08:55.395Z,1008.33
2017-09-18T00:09:55.334Z,1008.32
2017-09-18T00:10:55.301Z,1008.30
2017-09-18T00:11:55.264Z,1008.30
2017-09-18T00:12:55.237Z,1008.26
2017-09-18T00:13:55.192Z,1008.28
2017-09-18T00:14:55.165Z,1008.26
2017-09-18T00:15:55.127Z,1008.28
2017-09-18T00:16:55.086Z,1008.27
2017-09-18T00:17:55.065Z,1008.27
2017-09-18T00:18:55.016Z,1008.30
2017-09-18T00:19:54.979Z,1008.30
2017-09-18T00:20:54.953Z,1008.30
2017-09-18T00:21:54.912Z,1008.31
2017-09-18T00:22:54.877Z,1008.31
2017-09-18T00:23:54.834Z,1008.35
2017-09-18T00:24:54.806Z,1008.38
2017-09-18T00:25:54.764Z,1008.42
2017-09-18T00:26:54.736Z,1008.41
2017-09-18T00:27:54.695Z,1008.42
2017-09-18T00:28:54.658Z,1008.44
2017-09-18T00:29:54.639Z,1008.46
2017-09-18T00:30:54.583Z,1008.45
2017-09-18T00:31:54.557Z,1008.43
2017-09-18T00:32:54.519Z,1008.46
2017-09-18T00:33:54.480Z,1008.40
2017-09-18T00:34:54.519Z,1008.46
2017-09-18T00:35:54.413Z,1008.50
2017-09-18T00:36:54.378Z,1008.51
2017-09-18T00:37:54.343Z,1008.52
2017-09-18T00:38:54.299Z,1008.49
2017-09-18T00:39:54.268Z,1008.46
2017-09-18T00:40:54.239Z,1008.48
2017-09-18T00:41:54.197Z,1008.46
2017-09-18T00:42:54.161Z,1008.51
2017-09-18T00:43:54.123Z,1008.47
2017-09-18T00:44:54.092Z,1008.54
2017-09-18T00:45:54.060Z,1008.49
2017-09-18T00:46:54.018Z,1008.50
2017-09-18T00:47:53.998Z,1008.47
2017-09-18T00:48:53.942Z,1008.56
2017-09-18T00:49:53.907Z,1008.57
2017-09-18T00:50:53.868Z,1008.58
2017-09-18T00:51:53.837Z,1008.58
2017-09-18T00:52:53.798Z,1008.56
2017-09-18T00:53:53.762Z,1008.57
2017-09-18T00:54:53.727Z,1008.56
2017-09-18T00:55:53.690Z,1008.60
2017-09-18T00:56:53.653Z,1008.63
2017-09-18T00:57:53.627Z,1008.65
2017-09-18T00:58:53.582Z,1008.68
2017-09-18T00:59:53.545Z,1008.71
2017-09-18T01:00:53.509Z,1008.69
2017-09-18T01:01:53.473Z,1008.66
2017-09-18T01:02:53.442Z,1008.69
2017-09-18T01:03:53.402Z,1008.69
2017-09-18T01:04:53.365Z,1008.73
2017-09-18T01:05:53.331Z,1008.72
2017-09-18T01:06:53.293Z,1008.75
2017-09-18T01:07:53.262Z,1008.74
2017-09-18T01:08:53.225Z,1008.72
2017-09-18T01:09:53.190Z,1008.77
2017-09-18T01:10:53.149Z,1008.74
2017-09-18T01:11:53.113Z,1008.76
2017-09-18T01:12:53.076Z,1008.76
2017-09-18T01:13:53.041Z,1008.75
2017-09-18T01:14:53.005Z,1008.75
2017-09-18T01:15:52.971Z,1008.73
2017-09-18T01:16:52.934Z,1008.73
2017-09-18T01:17:52.897Z,1008.70
2017-09-18T01:18:52.859Z,1008.73
2017-09-18T01:19:52.825Z,1008.78
2017-09-18T01:20:52.789Z,1008.78
2017-09-18T01:21:52.774Z,1008.79
2017-09-18T01:22:52.716Z,1008.78
2017-09-18T01:23:52.680Z,1008.77
2017-09-18T01:24:52.644Z,1008.76
2017-09-18T01:25:52.622Z,1008.70
2017-09-18T01:26:52.572Z,1008.70
2017-09-18T01:27:52.536Z,1008.66
2017-09-18T01:28:52.503Z,1008.62
2017-09-18T01:29:52.463Z,1008.63
2017-09-18T01:30:52.433Z,1008.68
2017-09-18T01:31:52.394Z,1008.64
2017-09-18T01:32:52.358Z,1008.68
2017-09-18T01:33:52.318Z,1008.63
2017-09-18T01:34:52.285Z,1008.65
2017-09-18T01:35:52.248Z,1008.63
2017-09-18T01:36:52.217Z,1008.63
2017-09-18T01:37:52.177Z,1008.62
2017-09-18T01:38:52.140Z,1008.61
2017-09-18T01:39:52.105Z,1008.62
2017-09-18T01:40:52.068Z,1008.61
2017-09-18T01:41:52.033Z,1008.61
2017-09-18T01:42:51.994Z,1008.59
2017-09-18T01:43:51.961Z,1008.58
2017-09-18T01:44:51.928Z,1008.60
2017-09-18T01:45:51.895Z,1008.58
2017-09-18T01:46:51.854Z,1008.54
2017-09-18T01:47:51.816Z,1008.53
2017-09-18T01:48:51.783Z,1008.54
2017-09-18T01:49:51.749Z,1008.50
2017-09-18T01:50:51.707Z,1008.54
2017-09-18T01:51:51.674Z,1008.53
2017-09-18T01:52:51.634Z,1008.53
2017-09-18T01:53:51.614Z,1008.50
2017-09-18T01:54:51.572Z,1008.52
2017-09-18T01:55:51.527Z,1008.54
2017-09-18T01:56:51.492Z,1008.53
2017-09-18T01:57:51.456Z,1008.52
2017-09-18T01:58:51.417Z,1008.54
2017-09-18T01:59:51.389Z,1008.52
2017-09-18T02:00:51.347Z,1008.53
2017-09-18T02:01:51.315Z,1008.55
2017-09-18T02:02:51.274Z,1008.57
2017-09-18T02:03:51.248Z,1008.56
2017-09-18T02:04:51.205Z,1008.53
2017-09-18T02:05:51.171Z,1008.54
2017-09-18T02:06:51.129Z,1008.51
2017-09-18T02:07:51.103Z,1008.55
2017-09-18T02:08:51.057Z,1008.52
2017-09-18T02:09:51.024Z,1008.50
2017-09-18T02:10:50.992Z,1008.51
2017-09-18T02:11:50.949Z,1008.50
2017-09-18T02:12:50.919Z,1008.49
2017-09-18T02:13:50.876Z,1008.51
2017-09-18T02:14:50.839Z,1008.51
2017-09-18T02:15:50.806Z,1008.48
2017-09-18T02:16:50.769Z,1008.49
2017-09-18T02:17:50.734Z,1008.46
2017-09-18T02:18:50.695Z,1008.42
2017-09-18T02:19:50.661Z,1008.43
2017-09-18T02:20:50.631Z,1008.45
2017-09-18T02:21:50.590Z,1008.46
2017-09-18T02:22:50.551Z,1008.49
2017-09-18T02:23:50.518Z,1008.45
2017-09-18T02:24:50.486Z,1008.43
2017-09-18T02:25:50.444Z,1008.43
2017-09-18T02:26:50.408Z,1008.46
2017-09-18T02:27:50.371Z,1008.42
2017-09-18T02:28:50.333Z,1008.47
2017-09-18T02:29:50.296Z,1008.45
2017-09-18T02:30:50.261Z,1008.48
2017-09-18T02:31:50.229Z,1008.45
2017-09-18T02:32:50.198Z,1008.45
2017-09-18T02:33:50.163Z,1008.48
2017-09-18T02:34:50.119Z,1008.49
2017-09-18T02:35:50.081Z,1008.50
2017-09-18T02:36:50.046Z,1008.52
2017-09-18T02:37:50.008Z,1008.50
2017-09-18T02:38:49.978Z,1008.49
2017-09-18T02:39:49.939Z,1008.51
2017-09-18T02:40:49.901Z,1008.55
2017-09-18T02:41:49.866Z,1008.57
2017-09-18T02:42:49.829Z,1008.54
2017-09-18T02:43:49.796Z,1008.52
2017-09-18T02:44:49.753Z,1008.52
2017-09-18T02:45:49.728Z,1008.51
2017-09-18T02:46:49.683Z,1008.45
2017-09-18T02:47:49.648Z,1008.47
2017-09-18T02:48:49.615Z,1008.45
2017-09-18T02:49:49.577Z,1008.45
2017-09-18T02:50:49.535Z,1008.46
2017-09-18T02:51:49.515Z,1008.45
2017-09-18T02:52:49.503Z,1008.42
2017-09-18T02:53:49.433Z,1008.39
2017-09-18T02:54:49.436Z,1008.46
2017-09-18T02:55:49.391Z,1008.40
2017-09-18T02:56:49.351Z,1008.43
2017-09-18T02:57:49.283Z,1008.46
2017-09-18T02:58:49.253Z,1008.40
2017-09-18T02:59:49.210Z,1008.39
2017-09-18T03:00:49.205Z,1008.38
2017-09-18T03:01:49.149Z,1008.37
2017-09-18T03:02:49.222Z,1008.40
2017-09-18T03:03:49.080Z,1008.38
2017-09-18T03:04:49.050Z,1008.37
2017-09-18T03:05:48.999Z,1008.42
2017-09-18T03:06:48.964Z,1008.38
2017-09-18T03:07:48.917Z,1008.38
2017-09-18T03:08:48.880Z,1008.42
2017-09-18T03:09:48.849Z,1008.42
2017-09-18T03:10:48.815Z,1008.45
2017-09-18T03:11:48.777Z,1008.45
2017-09-18T03:12:48.739Z,1008.42
2017-09-18T03:13:48.772Z,1008.41
2017-09-18T03:14:48.670Z,1008.41
2017-09-18T03:15:48.638Z,1008.36
2017-09-18T03:16:48.595Z,1008.34
2017-09-18T03:17:48.558Z,1008.34
2017-09-18T03:18:48.530Z,1008.35
2017-09-18T03:19:48.499Z,1008.34
2017-09-18T03:20:48.446Z,1008.28
2017-09-18T03:21:48.409Z,1008.30
2017-09-18T03:22:48.378Z,1008.33
2017-09-18T03:23:48.341Z,1008.32
2017-09-18T03:24:48.299Z,1008.31
2017-09-18T03:25:48.272Z,1008.29
2017-09-18T03:26:48.229Z,1008.28
2017-09-18T03:27:48.191Z,1008.25
2017-09-18T03:28:48.158Z,1008.25
2017-09-18T03:29:48.115Z,1008.22
2017-09-18T03:30:48.082Z,1008.22
2017-09-18T03:31:48.044Z,1008.22
2017-09-18T03:32:48.009Z,1008.24
2017-09-18T03:33:47.976Z,1008.27
2017-09-18T03:34:47.934Z,1008.32
2017-09-18T03:35:47.897Z,1008.38
2017-09-18T03:36:47.864Z,1008.45
2017-09-18T03:37:47.828Z,1008.46
2017-09-18T03:38:47.790Z,1008.47
2017-09-18T03:39:47.769Z,1008.46
2017-09-18T03:40:47.721Z,1008.48
2017-09-18T03:41:47.685Z,1008.52
2017-09-18T03:42:47.646Z,1008.50
2017-09-18T03:43:47.609Z,1008.54
2017-09-18T03:44:47.574Z,1008.55
2017-09-18T03:45:47.539Z,1008.51
2017-09-18T03:46:47.499Z,1008.49
2017-09-18T03:47:47.463Z,1008.51
2017-09-18T03:48:47.432Z,1008.55
2017-09-18T03:49:47.394Z,1008.60
2017-09-18T03:50:47.354Z,1008.59
2017-09-18T03:51:47.320Z,1008.59
2017-09-18T03:52:47.284Z,1008.60
2017-09-18T03:53:47.251Z,1008.61
2017-09-18T03:54:47.219Z,1008.61
2017-09-18T03:55:47.181Z,1008.59
2017-09-18T03:56:47.139Z,1008.63
2017-09-18T03:57:47.101Z,1008.57
2017-09-18T03:58:47.065Z,1008.58
2017-09-18T03:59:47.032Z,1008.62
2017-09-18T04:00:46.995Z,1008.61
2017-09-18T04:01:46.958Z,1008.58
2017-09-18T04:02:46.921Z,1008.59
2017-09-18T04:03:46.883Z,1008.55
2017-09-18T04:04:46.853Z,1008.56
2017-09-18T04:05:46.811Z,1008.59
2017-09-18T04:06:46.783Z,1008.54
2017-09-18T04:07:46.739Z,1008.55
2017-09-18T04:08:46.703Z,1008.55
2017-09-18T04:09:46.669Z,1008.59
2017-09-18T04:10:46.640Z,1008.58
2017-09-18T04:11:46.595Z,1008.56
2017-09-18T04:12:46.559Z,1008.55
2017-09-18T04:13:46.522Z,1008.64
2017-09-18T04:14:46.488Z,1008.65
2017-09-18T04:15:46.450Z,1008.65
2017-09-18T04:16:46.416Z,1008.63
2017-09-18T04:17:46.380Z,1008.68
2017-09-18T04:18:46.342Z,1008.69
2017-09-18T04:19:46.305Z,1008.72
2017-09-18T04:20:46.270Z,1008.71
2017-09-18T04:21:46.234Z,1008.73
2017-09-18T04:22:46.202Z,1008.70
2017-09-18T04:23:46.161Z,1008.69
2017-09-18T04:24:46.126Z,1008.74
2017-09-18T04:25:46.088Z,1008.71
2017-09-18T04:26:46.051Z,1008.73
2017-09-18T04:27:46.016Z,1008.70
2017-09-18T04:28:45.980Z,1008.73
2017-09-18T04:29:45.944Z,1008.77
2017-09-18T04:30:45.907Z,1008.77
2017-09-18T04:31:45.870Z,1008.77
2017-09-18T04:32:45.835Z,1008.76
2017-09-18T04:33:45.800Z,1008.80
2017-09-18T04:34:45.772Z,1008.78
2017-09-18T04:35:45.727Z,1008.81
2017-09-18T04:36:45.689Z,1008.82
2017-09-18T04:37:45.655Z,1008.80
2017-09-18T04:38:45.617Z,1008.85
2017-09-18T04:39:45.579Z,1008.83
2017-09-18T04:40:45.544Z,1008.84
2017-09-18T04:41:45.509Z,1008.85
2017-09-18T04:42:45.478Z,1008.83
2017-09-18T04:43:45.436Z,1008.85
2017-09-18T04:44:45.399Z,1008.87
2017-09-18T04:45:45.363Z,1008.86
2017-09-18T04:46:45.334Z,1008.86
2017-09-18T04:47:45.287Z,1008.84
2017-09-18T04:48:45.255Z,1008.83
2017-09-18T04:49:45.215Z,1008.84
2017-09-18T04:50:45.183Z,1008.89
2017-09-18T04:51:45.141Z,1008.92
2017-09-18T04:52:45.117Z,1008.94
2017-09-18T04:53:45.070Z,1009.00
2017-09-18T04:54:45.037Z,1008.95
2017-09-18T04:55:44.999Z,1009.00
2017-09-18T04:56:44.964Z,1009.00
2017-09-18T04:57:44.927Z,1009.02
2017-09-18T04:58:44.888Z,1009.03
2017-09-18T04:59:44.852Z,1009.05
2017-09-18T05:00:44.816Z,1009.07
2017-09-18T05:01:44.809Z,1009.09
2017-09-18T05:02:44.741Z,1009.09
2017-09-18T05:03:44.705Z,1009.13
2017-09-18T05:04:44.670Z,1009.17
2017-09-18T05:05:44.633Z,1009.21
2017-09-18T05:06:44.596Z,1009.23
2017-09-18T05:07:44.557Z,1009.30
2017-09-18T05:08:44.524Z,1009.29
2017-09-18T05:09:44.485Z,1009.35
2017-09-18T05:10:44.456Z,1009.28
2017-09-18T05:11:44.415Z,1009.32
2017-09-18T05:12:44.389Z,1009.32
2017-09-18T05:13:44.343Z,1009.35
2017-09-18T05:14:44.303Z,1009.31
2017-09-18T05:15:44.271Z,1009.37
2017-09-18T05:16:44.233Z,1009.43
2017-09-18T05:17:44.196Z,1009.40
2017-09-18T05:18:44.166Z,1009.46
2017-09-18T05:19:44.138Z,1009.50
2017-09-18T05:20:44.096Z,1009.47
2017-09-18T05:21:44.084Z,1009.45
2017-09-18T05:22:44.023Z,1009.45
2017-09-18T05:23:43.981Z,1009.53
2017-09-18T05:24:43.970Z,1009.56
2017-09-18T05:25:43.916Z,1009.59
2017-09-18T05:26:43.878Z,1009.53
2017-09-18T05:27:43.843Z,1009.60
2017-09-18T05:28:43.809Z,1009.59
2017-09-18T05:29:43.772Z,1009.56
2017-09-18T05:30:43.746Z,1009.54
2017-09-18T05:31:43.741Z,1009.59
2017-09-18T05:32:43.724Z,1009.55
2017-09-18T05:33:43.649Z,1009.54
2017-09-18T05:34:43.599Z,1009.52
2017-09-18T05:35:43.579Z,1009.51
2017-09-18T05:36:43.532Z,1009.51
2017-09-18T05:37:43.510Z,1009.48
2017-09-18T05:38:43.463Z,1009.53
2017-09-18T05:39:43.427Z,1009.58
2017-09-18T05:40:43.398Z,1009.57
2017-09-18T05:41:43.369Z,1009.57
2017-09-18T05:42:43.339Z,1009.60
2017-09-18T05:43:43.292Z,1009.60
2017-09-18T05:44:43.278Z,1009.59
2017-09-18T05:45:43.228Z,1009.63
2017-09-18T05:46:43.191Z,1009.60
2017-09-18T05:47:43.166Z,1009.64
2017-09-18T05:48:43.125Z,1009.67
2017-09-18T05:49:43.101Z,1009.70
2017-09-18T05:50:43.064Z,1009.65
2017-09-18T05:51:43.036Z,1009.66
2017-09-18T05:52:42.995Z,1009.68
2017-09-18T05:53:42.981Z,1009.70
2017-09-18T05:54:42.933Z,1009.73
2017-09-18T05:55:42.895Z,1009.77
2017-09-18T05:56:42.862Z,1009.79
2017-09-18T05:57:42.830Z,1009.71
2017-09-18T05:58:42.795Z,1009.65
2017-09-18T05:59:42.763Z,1009.62
2017-09-18T06:00:42.729Z,1009.63
2017-09-18T06:01:42.697Z,1009.63
2017-09-18T06:02:42.676Z,1009.59
2017-09-18T06:03:42.633Z,1009.53
2017-09-18T06:04:42.599Z,1009.44
2017-09-18T06:05:42.571Z,1009.44
2017-09-18T06:06:42.540Z,1009.41
2017-09-18T06:07:42.504Z,1009.39
2017-09-18T06:08:42.483Z,1009.38
2017-09-18T06:09:42.442Z,1009.38
2017-09-18T06:10:42.426Z,1009.38
2017-09-18T06:11:42.378Z,1009.33
2017-09-18T06:12:42.345Z,1009.36
2017-09-18T06:13:42.316Z,1009.40
2017-09-18T06:14:42.282Z,1009.43
2017-09-18T06:15:42.253Z,1009.44
2017-09-18T06:16:42.223Z,1009.51
2017-09-18T06:17:42.186Z,1009.58
2017-09-18T06:18:42.159Z,1009.60
2017-09-18T06:19:42.130Z,1009.60
2017-09-18T06:20:42.095Z,1009.58
2017-09-18T06:21:42.067Z,1009.65
2017-09-18T06:22:42.031Z,1009.65
2017-09-18T06:23:42.003Z,1009.69
2017-09-18T06:24:41.976Z,1009.70
2017-09-18T06:25:41.942Z,1009.71
2017-09-18T06:26:41.911Z,1009.71
2017-09-18T06:27:41.919Z,1009.70
2017-09-18T06:28:41.852Z,1009.70
2017-09-18T06:29:41.821Z,1009.69
2017-09-18T06:30:41.790Z,1009.72
2017-09-18T06:31:41.759Z,1009.70
2017-09-18T06:32:41.729Z,1009.70
2017-09-18T06:33:41.701Z,1009.70
2017-09-18T06:34:41.666Z,1009.66
2017-09-18T06:35:41.636Z,1009.70
2017-09-18T06:36:41.612Z,1009.71
2017-09-18T06:37:41.577Z,1009.73
2017-09-18T06:38:41.546Z,1009.75
2017-09-18T06:39:41.521Z,1009.76
2017-09-18T06:40:41.489Z,1009.73
2017-09-18T06:41:41.457Z,1009.73
2017-09-18T06:42:41.428Z,1009.69
2017-09-18T06:43:41.405Z,1009.73
2017-09-18T06:44:41.366Z,1009.75
2017-09-18T06:45:41.335Z,1009.75
2017-09-18T06:46:41.308Z,1009.77
2017-09-18T06:47:41.285Z,1009.79
2017-09-18T06:48:41.252Z,1009.77
2017-09-18T06:49:41.218Z,1009.76
2017-09-18T06:50:41.194Z,1009.77
2017-09-18T06:51:41.157Z,1009.77
2017-09-18T06:52:41.128Z,1009.78
2017-09-18T06:53:41.106Z,1009.77
2017-09-18T06:54:41.068Z,1009.74
2017-09-18T06:55:41.038Z,1009.73
2017-09-18T06:56:41.005Z,1009.73
2017-09-18T06:57:40.977Z,1009.72
2017-09-18T06:58:40.945Z,1009.73
2017-09-18T06:59:40.915Z,1009.70
2017-09-18T07:00:40.888Z,1009.76
2017-09-18T07:01:40.853Z,1009.77
2017-09-18T07:02:40.821Z,1009.75
2017-09-18T07:03:40.791Z,1009.76
2017-09-18T07:04:40.761Z,1009.77
2017-09-18T07:05:40.728Z,1009.78
2017-09-18T07:06:40.703Z,1009.82
2017-09-18T07:07:40.663Z,1009.83
2017-09-18T07:08:40.638Z,1009.85
2017-09-18T07:09:40.601Z,1009.82
2017-09-18T07:10:40.566Z,1009.84
2017-09-18T07:11:40.538Z,1009.87
2017-09-18T07:12:40.504Z,1009.87
2017-09-18T07:13:40.474Z,1009.88
2017-09-18T07:14:40.453Z,1009.90
2017-09-18T07:15:40.408Z,1009.89
2017-09-18T07:16:40.373Z,1009.92
2017-09-18T07:17:40.357Z,1009.90
2017-09-18T07:18:40.309Z,1009.92
2017-09-18T07:19:40.276Z,1009.96
2017-09-18T07:20:40.243Z,1009.95
2017-09-18T07:21:40.211Z,1009.98
2017-09-18T07:22:40.178Z,1009.96
2017-09-18T07:23:40.143Z,1009.98
2017-09-18T07:24:40.113Z,1009.99
2017-09-18T07:25:40.090Z,1010.02
2017-09-18T07:26:40.043Z,1010.01
2017-09-18T07:27:40.010Z,1010.05
2017-09-18T07:28:39.991Z,1010.08
2017-09-18T07:29:39.944Z,1010.09
2017-09-18T07:30:39.917Z,1010.10
2017-09-18T07:31:39.877Z,1010.12
2017-09-18T07:32:39.847Z,1010.12
2017-09-18T07:33:39.813Z,1010.13
2017-09-18T07:34:39.796Z,1010.11
2017-09-18T07:35:39.742Z,1010.10
2017-09-18T07:36:39.710Z,1010.15
2017-09-18T07:37:39.676Z,1010.14
2017-09-18T07:38:39.641Z,1010.16
2017-09-18T07:39:39.611Z,1010.19
2017-09-18T07:40:39.577Z,1010.21
2017-09-18T07:41:39.541Z,1010.18
2017-09-18T07:42:39.518Z,1010.23
2017-09-18T07:43:39.472Z,1010.18
2017-09-18T07:44:39.440Z,1010.20
2017-09-18T07:45:39.408Z,1010.23
2017-09-18T07:46:39.380Z,1010.22
2017-09-18T07:47:39.339Z,1010.25
2017-09-18T07:48:39.309Z,1010.22
2017-09-18T07:49:39.294Z,1010.26
2017-09-18T07:50:39.245Z,1010.27
2017-09-18T07:51:39.206Z,1010.27
2017-09-18T07:52:39.174Z,1010.27
2017-09-18T07:53:39.172Z,1010.26
2017-09-18T07:54:39.114Z,1010.23
2017-09-18T07:55:39.073Z,1010.28
2017-09-18T07:56:39.046Z,1010.29
2017-09-18T07:57:39.008Z,1010.29
2017-09-18T07:58:38.970Z,1010.30
2017-09-18T07:59:38.948Z,1010.29
2017-09-18T08:00:38.904Z,1010.28
2017-09-18T08:01:38.895Z,1010.29
2017-09-18T08:02:38.857Z,1010.30
2017-09-18T08:03:38.808Z,1010.31
2017-09-18T08:04:38.783Z,1010.30
2017-09-18T08:05:38.736Z,1010.31
2017-09-18T08:06:38.714Z,1010.30
2017-09-18T08:07:38.666Z,1010.34
2017-09-18T08:08:38.648Z,1010.34
2017-09-18T08:09:38.627Z,1010.33
2017-09-18T08:10:39.227Z,1010.34
2017-09-18T08:11:38.534Z,1010.35
2017-09-18T08:12:38.509Z,1010.33
2017-09-18T08:13:38.465Z,1010.34
2017-09-18T08:14:38.433Z,1010.35
2017-09-18T08:15:38.400Z,1010.31
2017-09-18T08:16:38.365Z,1010.35
2017-09-18T08:17:38.331Z,1010.33
2017-09-18T08:18:38.297Z,1010.32
2017-09-18T08:19:38.271Z,1010.35
2017-09-18T08:20:38.231Z,1010.37
2017-09-18T08:21:38.198Z,1010.38
2017-09-18T08:22:38.164Z,1010.35
2017-09-18T08:23:38.131Z,1010.36
2017-09-18T08:24:38.097Z,1010.31
2017-09-18T08:25:38.058Z,1010.33
2017-09-18T08:26:38.022Z,1010.31
2017-09-18T08:27:38.005Z,1010.30
2017-09-18T08:28:37.963Z,1010.34
2017-09-18T08:29:38.395Z,1010.31
2017-09-18T08:30:37.889Z,1010.32
2017-09-18T08:31:37.852Z,1010.36
2017-09-18T08:32:37.822Z,1010.33
2017-09-18T08:33:37.783Z,1010.28
2017-09-18T08:34:37.749Z,1010.31
2017-09-18T08:35:37.715Z,1010.33
2017-09-18T08:36:37.681Z,1010.34
2017-09-18T08:37:37.646Z,1010.38
2017-09-18T08:38:37.616Z,1010.37
2017-09-18T08:39:37.580Z,1010.33
2017-09-18T08:40:37.549Z,1010.34
2017-09-18T08:41:37.513Z,1010.35
2017-09-18T08:42:37.479Z,1010.38
2017-09-18T08:43:37.445Z,1010.36
2017-09-18T08:44:37.410Z,1010.37
2017-09-18T08:45:37.374Z,1010.36
2017-09-18T08:46:37.340Z,1010.36
2017-09-18T08:47:37.324Z,1010.34
2017-09-18T08:48:37.273Z,1010.31
2017-09-18T08:49:37.247Z,1010.32
2017-09-18T08:50:37.203Z,1010.33
2017-09-18T08:51:37.171Z,1010.37
2017-09-18T08:52:37.138Z,1010.37
2017-09-18T08:53:37.100Z,1010.39
2017-09-18T08:54:37.070Z,1010.38
2017-09-18T08:55:37.037Z,1010.38
2017-09-18T08:56:37.003Z,1010.39
2017-09-18T08:57:36.991Z,1010.39
2017-09-18T08:58:36.935Z,1010.40
2017-09-18T08:59:36.901Z,1010.40
2017-09-18T09:00:36.866Z,1010.40
2017-09-18T09:01:36.841Z,1010.34
2017-09-18T09:02:36.849Z,1010.36
2017-09-18T09:03:36.767Z,1010.40
2017-09-18T09:04:36.734Z,1010.37
2017-09-18T09:05:36.706Z,1010.37
2017-09-18T09:06:37.237Z,1010.36
2017-09-18T09:07:36.647Z,1010.40
2017-09-18T09:08:36.600Z,1010.38
2017-09-18T09:09:36.566Z,1010.44
2017-09-18T09:10:36.531Z,1010.44
2017-09-18T09:11:36.499Z,1010.41
2017-09-18T09:12:36.464Z,1010.41
2017-09-18T09:13:36.431Z,1010.45
2017-09-18T09:14:36.397Z,1010.42
2017-09-18T09:15:36.389Z,1010.43
2017-09-18T09:16:36.330Z,1010.41
2017-09-18T09:17:36.314Z,1010.43
2017-09-18T09:18:36.263Z,1010.46
2017-09-18T09:19:36.229Z,1010.47
2017-09-18T09:20:36.201Z,1010.46
2017-09-18T09:21:36.167Z,1010.49
2017-09-18T09:22:36.136Z,1010.50
2017-09-18T09:23:36.099Z,1010.51
2017-09-18T09:24:36.069Z,1010.51
2017-09-18T09:25:36.035Z,1010.49
2017-09-18T09:26:36.009Z,1010.49
2017-09-18T09:27:35.965Z,1010.43
2017-09-18T09:28:35.930Z,1010.32
2017-09-18T09:29:35.896Z,1010.37
2017-09-18T09:30:35.865Z,1010.41
2017-09-18T09:31:35.826Z,1010.54
2017-09-18T09:32:35.796Z,1010.54
2017-09-18T09:33:35.763Z,1010.44
2017-09-18T09:34:35.733Z,1010.57
2017-09-18T09:35:35.718Z,1010.53
2017-09-18T09:36:35.668Z,1010.52
2017-09-18T09:37:35.638Z,1010.54
2017-09-18T09:38:35.596Z,1010.56
2017-09-18T09:39:35.561Z,1010.57
2017-09-18T09:40:35.540Z,1010.57
2017-09-18T09:41:35.494Z,1010.53
2017-09-18T09:42:35.461Z,1010.58
2017-09-18T09:43:35.440Z,1010.58
2017-09-18T09:44:35.396Z,1010.58
2017-09-18T09:45:35.366Z,1010.60
2017-09-18T09:46:35.338Z,1010.62
2017-09-18T09:47:35.299Z,1010.61
2017-09-18T09:48:35.264Z,1010.60
2017-09-18T09:49:35.227Z,1010.63
2017-09-18T09:50:35.194Z,1010.64
2017-09-18T09:51:35.178Z,1010.59
2017-09-18T09:52:35.128Z,1010.62
2017-09-18T09:53:35.139Z,1010.60
2017-09-18T09:54:35.130Z,1010.60
2017-09-18T09:55:35.073Z,1010.46
2017-09-18T09:56:35.046Z,1010.45
2017-09-18T09:57:34.994Z,1010.49
2017-09-18T09:58:35.006Z,1010.39
2017-09-18T09:59:34.941Z,1010.45
2017-09-18T10:00:34.904Z,1010.41
2017-09-18T10:01:34.886Z,1010.39
2017-09-18T10:02:34.892Z,1010.51
2017-09-18T10:03:34.883Z,1010.57
2017-09-18T10:04:34.790Z,1010.56
2017-09-18T10:05:34.716Z,1010.57
2017-09-18T10:06:34.667Z,1010.57
2017-09-18T10:07:34.630Z,1010.55
2017-09-18T10:08:34.599Z,1010.59
2017-09-18T10:09:34.563Z,1010.60
2017-09-18T10:10:34.540Z,1010.63
2017-09-18T10:11:34.498Z,1010.60
2017-09-18T10:12:34.465Z,1010.61
2017-09-18T10:13:34.435Z,1010.60
2017-09-18T10:14:34.401Z,1010.57
2017-09-18T10:15:34.367Z,1010.57
2017-09-18T10:16:34.333Z,1010.56
2017-09-18T10:17:34.307Z,1010.64
2017-09-18T10:18:34.268Z,1010.61
2017-09-18T10:19:34.232Z,1010.60
2017-09-18T10:20:34.198Z,1010.59
2017-09-18T10:21:34.191Z,1010.63
2017-09-18T10:22:34.139Z,1010.62
2017-09-18T10:23:34.140Z,1010.63
2017-09-18T10:24:34.067Z,1010.64
2017-09-18T10:25:34.033Z,1010.67
2017-09-18T10:26:34.015Z,1010.68
2017-09-18T10:27:33.971Z,1010.67
2017-09-18T10:28:33.965Z,1010.74
2017-09-18T10:29:33.906Z,1010.66
2017-09-18T10:30:33.875Z,1010.76
2017-09-18T10:31:33.840Z,1010.73
2017-09-18T10:32:33.806Z,1010.71
2017-09-18T10:33:33.813Z,1010.73
2017-09-18T10:34:33.742Z,1010.74
2017-09-18T10:35:33.715Z,1010.73
2017-09-18T10:36:33.675Z,1010.71
2017-09-18T10:37:33.644Z,1010.69
2017-09-18T10:38:33.648Z,1010.64
2017-09-18T10:39:33.577Z,1010.68
2017-09-18T10:40:33.631Z,1010.71
2017-09-18T10:41:33.530Z,1010.71
2017-09-18T10:42:33.488Z,1010.68
2017-09-18T10:43:33.475Z,1010.69
2017-09-18T10:44:33.423Z,1010.75
2017-09-18T10:45:33.385Z,1010.74
2017-09-18T10:46:33.350Z,1010.77
2017-09-18T10:47:33.339Z,1010.76
2017-09-18T10:48:33.298Z,1010.81
2017-09-18T10:49:33.284Z,1010.84
2017-09-18T10:50:33.260Z,1010.86
2017-09-18T10:51:33.220Z,1010.88
2017-09-18T10:52:33.179Z,1010.88
2017-09-18T10:53:33.145Z,1010.87
2017-09-18T10:54:33.115Z,1010.85
2017-09-18T10:55:33.060Z,1010.86
2017-09-18T10:56:33.035Z,1010.85
2017-09-18T10:57:33.007Z,1010.81
2017-09-18T10:58:32.999Z,1010.79
2017-09-18T10:59:32.945Z,1010.68
2017-09-18T11:00:32.917Z,1010.69
2017-09-18T11:01:32.871Z,1010.67
2017-09-18T11:02:32.844Z,1010.81
2017-09-18T11:03:32.817Z,1010.63
2017-09-18T11:04:32.785Z,1010.67
2017-09-18T11:05:32.744Z,1010.68
2017-09-18T11:06:32.712Z,1010.71
2017-09-18T11:07:32.683Z,1010.70
2017-09-18T11:08:32.658Z,1010.73
2017-09-18T11:09:32.619Z,1010.70
2017-09-18T11:10:32.583Z,1010.73
2017-09-18T11:11:32.551Z,1010.73
2017-09-18T11:12:32.520Z,1010.71
2017-09-18T11:13:32.490Z,1010.74
2017-09-18T11:14:32.456Z,1010.67
2017-09-18T11:15:32.424Z,1010.63
2017-09-18T11:16:32.395Z,1010.60
2017-09-18T11:17:32.362Z,1010.61
2017-09-18T11:18:32.335Z,1010.63
2017-09-18T11:19:32.309Z,1010.67
2017-09-18T11:20:32.269Z,1010.55
2017-09-18T11:21:32.238Z,1010.56
2017-09-18T11:22:32.204Z,1010.59
2017-09-18T11:23:32.169Z,1010.60
2017-09-18T11:24:32.148Z,1010.63
2017-09-18T11:25:32.109Z,1010.59
2017-09-18T11:26:32.080Z,1010.58
2017-09-18T11:27:32.049Z,1010.61
2017-09-18T11:28:32.015Z,1010.61
2017-09-18T11:29:31.991Z,1010.62
2017-09-18T11:30:31.950Z,1010.62
2017-09-18T11:31:31.915Z,1010.59
2017-09-18T11:32:31.886Z,1010.60
2017-09-18T11:33:31.854Z,1010.58
2017-09-18T11:34:31.826Z,1010.58
2017-09-18T11:35:31.792Z,1010.59
2017-09-18T11:36:31.765Z,1010.59
2017-09-18T11:37:31.731Z,1010.57
2017-09-18T11:38:31.697Z,1010.58
2017-09-18T11:39:31.665Z,1010.63
2017-09-18T11:40:31.629Z,1010.57
2017-09-18T11:41:31.595Z,1010.56
2017-09-18T11:42:31.572Z,1010.56
2017-09-18T11:43:31.532Z,1010.52
2017-09-18T11:44:31.509Z,1010.54
2017-09-18T11:45:31.474Z,1010.53
2017-09-18T11:46:31.440Z,1010.52
2017-09-18T11:47:31.416Z,1010.56
2017-09-18T11:48:31.372Z,1010.56
2017-09-18T11:49:31.340Z,1010.55
2017-09-18T11:50:31.308Z,1010.53
2017-09-18T11:51:31.272Z,1010.55
2017-09-18T11:52:31.248Z,1010.60
2017-09-18T11:53:31.213Z,1010.61
2017-09-18T11:54:31.183Z,1010.58
2017-09-18T11:55:31.153Z,1010.58
2017-09-18T11:56:31.115Z,1010.54
2017-09-18T11:57:31.080Z,1010.57
2017-09-18T11:58:31.049Z,1010.59
2017-09-18T11:59:31.017Z,1010.58
2017-09-18T12:00:30.985Z,1010.57
2017-09-18T12:01:30.954Z,1010.59
2017-09-18T12:02:30.922Z,1010.59
2017-09-18T12:03:30.890Z,1010.63
2017-09-18T12:04:30.877Z,1010.63
2017-09-18T12:05:30.832Z,1010.62